createdAt,value
2023-05-20T00:01:29.128Z,80.80
2023-05-20T00:03:57.563Z,81.20
2023-05-20T00:06:26.200Z,82.80
2023-05-20T00:08:55.594Z,80.90
2023-05-20T00:11:26.205Z,82.40
2023-05-20T00:13:54.446Z,85.70
2023-05-20T00:16:22.845Z,83.50
2023-05-20T00:18:51.264Z,84.20
2023-05-20T00:21:19.606Z,85.70
2023-05-20T00:23:47.835Z,88.40
2023-05-20T00:26:16.178Z,89.50
2023-05-20T00:28:47.771Z,90.60
2023-05-20T00:31:16.140Z,92.10
2023-05-20T00:33:44.423Z,91.60
2023-05-20T00:36:12.801Z,91.10
2023-05-20T00:38:40.981Z,91.40
2023-05-20T00:41:09.353Z,92.70
2023-05-20T00:43:37.616Z,93.40
2023-05-20T00:46:07.510Z,91.60
2023-05-20T00:48:42.405Z,91.80
2023-05-20T00:51:12.433Z,92.80
2023-05-20T00:53:41.029Z,93.80
2023-05-20T00:56:11.116Z,95.60
2023-05-20T00:58:39.906Z,96.70
2023-05-20T01:01:09.969Z,97.00
2023-05-20T01:03:39.134Z,98.30
2023-05-20T01:06:07.694Z,99.40
2023-05-20T01:08:36.151Z,98.80
2023-05-20T01:11:08.192Z,99.90
2023-05-20T01:13:44.345Z,99.90
2023-05-20T01:16:18.921Z,99.90
2023-05-20T01:18:49.554Z,99.90
2023-05-20T01:21:19.661Z,99.90
2023-05-20T01:23:49.306Z,99.90
2023-05-20T01:26:18.833Z,99.90
2023-05-20T01:28:47.736Z,99.90
2023-05-20T01:31:20.006Z,99.90
2023-05-20T01:33:52.304Z,99.90
2023-05-20T01:36:22.412Z,99.90
2023-05-20T01:38:53.905Z,99.90
2023-05-20T01:41:24.441Z,99.90
2023-05-20T01:43:52.890Z,99.90
2023-05-20T01:46:21.350Z,99.90
2023-05-20T01:48:50.909Z,99.90
2023-05-20T01:51:19.366Z,99.90
2023-05-20T01:53:47.594Z,99.90
2023-05-20T01:56:17.282Z,99.90
2023-05-20T01:58:45.787Z,99.90
2023-05-20T02:01:14.843Z,99.90
2023-05-20T02:03:44.963Z,99.90
2023-05-20T02:06:13.374Z,99.90
2023-05-20T02:08:41.622Z,99.90
2023-05-20T02:11:09.984Z,99.90
2023-05-20T02:13:41.504Z,99.90
2023-05-20T02:16:10.044Z,99.90
2023-05-20T02:18:38.478Z,99.90
2023-05-20T02:21:07.264Z,99.90
2023-05-20T02:23:35.957Z,99.90
2023-05-20T02:26:04.447Z,99.90
2023-05-20T02:28:32.687Z,99.90
2023-05-20T02:31:02.394Z,99.90
2023-05-20T02:33:33.534Z,99.90
2023-05-20T02:36:02.386Z,99.90
2023-05-20T02:38:31.756Z,99.90
2023-05-20T02:41:01.300Z,99.90
2023-05-20T02:43:30.778Z,99.90
2023-05-20T02:46:03.597Z,99.90
2023-05-20T02:48:32.032Z,99.90
2023-05-20T02:51:00.848Z,99.90
2023-05-20T02:53:29.202Z,99.90
2023-05-20T02:55:59.616Z,99.90
2023-05-20T02:58:29.292Z,99.90
2023-05-20T03:00:57.738Z,99.90
2023-05-20T03:03:28.107Z,99.90
2023-05-20T03:05:56.886Z,99.90
2023-05-20T03:08:25.682Z,99.90
2023-05-20T03:10:54.123Z,99.90
2023-05-20T03:13:22.766Z,99.90
2023-05-20T03:15:51.327Z,99.90
2023-05-20T03:18:19.563Z,99.90
2023-05-20T03:20:49.413Z,99.90
2023-05-20T03:23:17.787Z,99.90
2023-05-20T03:25:46.234Z,99.90
2023-05-20T03:28:14.493Z,99.90
2023-05-20T03:30:42.818Z,99.90
2023-05-20T03:33:12.281Z,99.90
2023-05-20T03:35:40.852Z,99.90
2023-05-20T03:38:10.379Z,99.90
2023-05-20T03:40:40.167Z,99.90
2023-05-20T03:43:08.449Z,99.90
2023-05-20T03:45:37.048Z,99.90
2023-05-20T03:48:08.059Z,99.90
2023-05-20T03:50:37.729Z,99.90
2023-05-20T03:53:06.433Z,99.90
2023-05-20T03:55:41.509Z,99.90
2023-05-20T03:58:10.771Z,99.90
2023-05-20T04:00:39.690Z,99.90
2023-05-20T04:03:08.654Z,99.90
2023-05-20T04:05:37.595Z,99.90
2023-05-20T04:08:13.462Z,99.90
2023-05-20T04:10:43.868Z,99.90
2023-05-20T04:13:13.272Z,99.90
2023-05-20T04:15:42.798Z,99.90
2023-05-20T04:18:13.083Z,99.90
2023-05-20T04:20:42.549Z,99.90
2023-05-20T04:23:11.707Z,99.90
2023-05-20T04:25:41.212Z,99.90
2023-05-20T04:28:14.010Z,99.90
2023-05-20T04:30:42.612Z,99.90
2023-05-20T04:33:11.599Z,99.90
2023-05-20T04:35:41.560Z,99.90
2023-05-20T04:38:10.869Z,99.90
2023-05-20T04:40:40.777Z,99.90
2023-05-20T04:43:11.064Z,99.90
2023-05-20T04:45:40.297Z,99.90
2023-05-20T04:48:09.473Z,99.90
2023-05-20T04:50:39.128Z,99.90
2023-05-20T04:53:08.965Z,99.90
2023-05-20T04:55:38.998Z,99.90
2023-05-20T04:58:08.394Z,99.90
2023-05-20T05:00:38.758Z,99.90
2023-05-20T05:03:08.442Z,99.90
2023-05-20T05:05:38.786Z,99.90
2023-05-20T05:08:07.958Z,99.90
2023-05-20T05:10:40.966Z,99.90
2023-05-20T05:13:11.113Z,99.90
2023-05-20T05:15:40.757Z,99.90
2023-05-20T05:18:09.744Z,99.90
2023-05-20T05:20:38.777Z,99.90
2023-05-20T05:23:07.447Z,99.90
2023-05-20T05:25:36.225Z,99.90
2023-05-20T05:28:04.911Z,99.90
2023-05-20T05:30:33.249Z,99.90
2023-05-20T05:33:05.282Z,99.90
2023-05-20T05:35:34.425Z,99.90
2023-05-20T05:38:03.104Z,99.90
2023-05-20T05:40:31.596Z,99.90
2023-05-20T05:43:00.357Z,99.90
2023-05-20T05:45:28.719Z,99.90
2023-05-20T05:47:57.639Z,99.90
2023-05-20T05:50:28.258Z,99.90
2023-05-20T05:52:56.626Z,99.90
2023-05-20T05:55:25.201Z,99.90
2023-05-20T05:57:56.167Z,99.90
2023-05-20T06:00:25.081Z,99.90
2023-05-20T06:02:53.501Z,99.90
2023-05-20T06:05:34.426Z,99.90
2023-05-20T06:08:03.177Z,99.90
2023-05-20T06:10:34.457Z,99.90
2023-05-20T06:13:03.119Z,99.90
2023-05-20T06:15:32.881Z,99.90
2023-05-20T06:18:01.822Z,99.90
2023-05-20T06:20:30.263Z,99.90
2023-05-20T06:23:00.271Z,99.90
2023-05-20T06:25:37.346Z,99.90
2023-05-20T06:28:06.395Z,99.90
2023-05-20T06:30:34.804Z,99.90
2023-05-20T06:33:03.566Z,99.90
2023-05-20T06:35:34.816Z,99.90
2023-05-20T06:38:05.908Z,99.90
2023-05-20T06:40:35.518Z,99.90
2023-05-20T06:43:03.878Z,99.90
2023-05-20T06:45:52.029Z,99.90
2023-05-20T06:48:25.399Z,99.50
2023-05-20T06:50:53.995Z,96.50
2023-05-20T06:53:23.772Z,96.30
2023-05-20T06:55:52.668Z,94.00
2023-05-20T06:58:22.362Z,95.80
2023-05-20T07:00:50.685Z,98.20
2023-05-20T07:03:19.084Z,95.30
2023-05-20T07:05:47.664Z,98.50
2023-05-20T07:08:16.058Z,94.40
2023-05-20T07:10:46.503Z,94.50
2023-05-20T07:13:18.329Z,93.90
2023-05-20T07:15:48.508Z,93.30
2023-05-20T07:18:17.976Z,93.20
2023-05-20T07:20:52.833Z,97.10
2023-05-20T07:23:40.955Z,94.50
2023-05-20T07:26:10.767Z,94.00
2023-05-20T07:28:39.642Z,95.20
2023-05-20T07:31:08.060Z,90.10
2023-05-20T07:33:42.982Z,93.70
2023-05-20T07:36:11.634Z,87.10
2023-05-20T07:38:49.726Z,85.40
2023-05-20T07:41:27.280Z,83.40
2023-05-20T07:43:56.025Z,87.30
2023-05-20T07:46:24.488Z,84.50
2023-05-20T07:48:53.153Z,86.30
2023-05-20T07:51:21.815Z,81.20
2023-05-20T07:53:50.674Z,81.90
2023-05-20T07:56:19.694Z,73.00
2023-05-20T07:58:55.501Z,72.60
2023-05-20T08:01:26.040Z,70.70
2023-05-20T08:03:55.593Z,67.80
2023-05-20T08:06:28.760Z,71.60
2023-05-20T08:08:58.857Z,65.20
2023-05-20T08:11:32.209Z,57.40
2023-05-20T08:14:03.066Z,51.10
2023-05-20T08:16:38.211Z,50.70
2023-05-20T08:19:06.661Z,48.40
2023-05-20T08:21:35.243Z,33.20
2023-05-20T08:24:05.360Z,35.50
2023-05-20T08:26:34.658Z,39.80
2023-05-20T08:29:04.343Z,41.30
2023-05-20T08:31:32.686Z,42.50
2023-05-20T08:34:01.562Z,48.90
2023-05-20T08:36:29.831Z,50.70
2023-05-20T08:38:58.229Z,54.70
2023-05-20T08:41:27.088Z,49.10
2023-05-20T08:43:56.996Z,54.30
2023-05-20T08:46:33.293Z,55.90
2023-05-20T08:49:03.192Z,64.80
2023-05-20T08:51:34.339Z,64.20
2023-05-20T08:54:05.664Z,66.40
2023-05-20T08:56:39.138Z,68.50
2023-05-20T08:59:12.274Z,71.40
2023-05-20T09:01:45.931Z,70.10
2023-05-20T09:04:19.711Z,58.30
2023-05-20T09:06:52.452Z,49.00
2023-05-20T09:09:22.686Z,42.20
2023-05-20T09:11:53.695Z,37.70
2023-05-20T09:14:23.625Z,33.30
2023-05-20T09:16:53.299Z,34.00
2023-05-20T09:19:24.467Z,41.30
2023-05-20T09:21:58.665Z,40.60
2023-05-20T09:24:29.763Z,44.40
2023-05-20T09:27:01.215Z,49.30
2023-05-20T09:29:30.821Z,54.40
2023-05-20T09:32:06.786Z,53.50
2023-05-20T09:34:36.711Z,51.00
2023-05-20T09:37:07.982Z,44.50
2023-05-20T09:39:51.276Z,41.70
2023-05-20T09:42:26.813Z,41.40
2023-05-20T09:44:56.322Z,48.60
2023-05-20T09:47:27.381Z,27.50
2023-05-20T09:49:56.579Z,17.90
2023-05-20T09:52:25.586Z,14.10
2023-05-20T09:54:57.354Z,13.30
2023-05-20T09:57:26.414Z,27.50
2023-05-20T09:59:55.151Z,23.90
2023-05-20T10:02:23.974Z,22.80
2023-05-20T10:04:56.827Z,18.80
2023-05-20T10:07:52.858Z,14.10
2023-05-20T10:10:35.044Z,13.90
2023-05-20T10:13:14.425Z,5.70
2023-05-20T10:15:51.172Z,8.90
2023-05-20T10:18:41.153Z,18.30
2023-05-20T10:21:18.527Z,12.00
2023-05-20T10:23:47.265Z,11.80
2023-05-20T10:26:15.586Z,35.50
2023-05-20T10:28:44.862Z,17.20
2023-05-20T10:31:18.120Z,16.60
2023-05-20T10:33:47.637Z,23.50
2023-05-20T10:36:27.941Z,25.90
2023-05-20T10:38:58.275Z,25.40
2023-05-20T10:41:28.743Z,22.70
2023-05-20T10:44:05.339Z,19.90
2023-05-20T10:46:46.283Z,22.90
2023-05-20T10:49:26.898Z,20.70
2023-05-20T10:51:57.381Z,19.80
2023-05-20T10:54:25.948Z,21.60
2023-05-20T10:56:54.882Z,21.50
2023-05-20T10:59:23.529Z,13.30
2023-05-20T11:01:53.641Z,10.10
2023-05-20T11:04:22.427Z,7.30
2023-05-20T11:06:55.807Z,1.70
2023-05-20T11:09:25.849Z,1.00
2023-05-20T11:11:55.830Z,1.00
2023-05-20T11:14:24.240Z,1.00
2023-05-20T11:16:54.143Z,1.00
2023-05-20T11:19:22.831Z,1.00
2023-05-20T11:21:51.434Z,1.00
2023-05-20T11:24:27.532Z,1.00
2023-05-20T11:26:57.401Z,1.00
2023-05-20T11:29:28.988Z,1.00
2023-05-20T11:31:57.411Z,1.90
2023-05-20T11:34:27.737Z,5.60
2023-05-20T11:37:00.748Z,1.00
2023-05-20T11:39:32.497Z,1.00
2023-05-20T11:42:01.039Z,1.00
2023-05-20T11:44:29.307Z,1.90
2023-05-20T11:47:01.692Z,1.00
2023-05-20T11:49:30.877Z,1.00
2023-05-20T11:51:59.489Z,1.00
2023-05-20T11:54:27.775Z,1.00
2023-05-20T11:56:57.477Z,1.00
2023-05-20T11:59:26.203Z,5.40
2023-05-20T12:01:54.451Z,1.00
2023-05-20T12:04:23.162Z,1.00
2023-05-20T12:06:53.063Z,1.00
2023-05-20T12:09:22.428Z,1.00
2023-05-20T12:11:50.996Z,1.00
2023-05-20T12:14:20.614Z,1.00
2023-05-20T12:16:48.965Z,1.00
2023-05-20T12:19:17.398Z,1.00
2023-05-20T12:21:47.213Z,1.00
2023-05-20T12:24:15.589Z,1.00
2023-05-20T12:26:44.102Z,1.00
2023-05-20T12:29:12.785Z,1.00
2023-05-20T12:31:42.781Z,1.00
2023-05-20T12:34:11.189Z,1.00
2023-05-20T12:36:39.434Z,1.00
2023-05-20T12:39:09.331Z,1.00
2023-05-20T12:41:37.559Z,1.00
2023-05-20T12:44:06.478Z,1.00
2023-05-20T12:46:34.854Z,1.00
2023-05-20T12:49:04.746Z,1.00
2023-05-20T12:51:32.949Z,1.00
2023-05-20T12:54:01.306Z,1.00
2023-05-20T12:56:30.444Z,1.00
2023-05-20T12:58:59.026Z,1.00
2023-05-20T13:01:27.440Z,1.00
2023-05-20T13:03:55.831Z,1.00
2023-05-20T13:06:26.171Z,1.00
2023-05-20T13:08:54.468Z,1.00
2023-05-20T13:11:22.799Z,1.00
2023-05-20T13:13:51.148Z,1.00
2023-05-20T13:16:19.709Z,1.00
2023-05-20T13:18:48.232Z,1.00
2023-05-20T13:21:16.576Z,1.00
2023-05-20T13:23:46.244Z,1.00
2023-05-20T13:26:14.685Z,1.00
2023-05-20T13:28:42.998Z,1.00
2023-05-20T13:31:11.342Z,1.00
2023-05-20T13:33:39.696Z,1.00
2023-05-20T13:36:08.401Z,1.00
2023-05-20T13:38:37.611Z,1.00
2023-05-20T13:41:07.348Z,1.00
2023-05-20T13:43:36.081Z,1.00
2023-05-20T13:46:04.426Z,1.00
2023-05-20T13:48:33.060Z,1.00
2023-05-20T13:51:01.778Z,1.00
2023-05-20T13:53:30.414Z,1.00
2023-05-20T13:55:59.241Z,1.00
2023-05-20T13:58:28.977Z,1.00
2023-05-20T14:00:57.360Z,1.00
2023-05-20T14:03:25.852Z,1.00
2023-05-20T14:05:54.482Z,1.00
2023-05-20T14:08:23.036Z,1.00
2023-05-20T14:10:54.600Z,1.00
2023-05-20T14:13:24.417Z,1.00
2023-05-20T14:15:54.764Z,1.00
2023-05-20T14:18:23.232Z,1.00
2023-05-20T14:20:51.483Z,1.00
2023-05-20T14:23:19.812Z,1.00
2023-05-20T14:25:48.029Z,1.00
2023-05-20T14:28:16.392Z,1.00
2023-05-20T14:30:44.566Z,1.00
2023-05-20T14:33:14.615Z,1.00
2023-05-20T14:35:42.902Z,1.00
2023-05-20T14:38:11.377Z,1.00
2023-05-20T14:40:39.806Z,1.00
2023-05-20T14:43:08.160Z,1.00
2023-05-20T14:45:36.466Z,1.00
2023-05-20T14:48:05.286Z,1.00
2023-05-20T14:50:34.923Z,1.00
2023-05-20T14:53:03.442Z,1.00
2023-05-20T14:55:31.632Z,1.00
2023-05-20T14:58:00.051Z,1.00
2023-05-20T15:00:28.313Z,1.00
2023-05-20T15:02:56.837Z,1.00
2023-05-20T15:05:25.076Z,1.00
2023-05-20T15:07:55.024Z,1.00
2023-05-20T15:10:23.358Z,1.00
2023-05-20T15:12:53.311Z,1.00
2023-05-20T15:15:22.080Z,1.00
2023-05-20T15:17:50.529Z,1.00
2023-05-20T15:20:18.855Z,1.00
2023-05-20T15:22:48.096Z,1.00
2023-05-20T15:25:17.968Z,1.00
2023-05-20T15:27:46.309Z,1.00
2023-05-20T15:30:15.526Z,1.00
2023-05-20T15:32:44.183Z,1.00
2023-05-20T15:35:12.457Z,1.00
2023-05-20T15:37:41.024Z,1.00
2023-05-20T15:40:10.346Z,1.00
2023-05-20T15:42:40.031Z,1.00
2023-05-20T15:45:09.698Z,1.00
2023-05-20T15:47:40.582Z,1.00
2023-05-20T15:50:11.139Z,1.00
2023-05-20T15:52:39.616Z,1.00
2023-05-20T15:55:09.113Z,1.00
2023-05-20T15:57:38.759Z,1.00
2023-05-20T16:00:10.324Z,1.00
2023-05-20T16:02:40.165Z,1.00
2023-05-20T16:05:09.148Z,1.00
2023-05-20T16:07:37.595Z,1.00
2023-05-20T16:10:06.640Z,1.00
2023-05-20T16:12:35.002Z,1.00
2023-05-20T16:15:04.776Z,1.00
2023-05-20T16:17:33.217Z,1.00
2023-05-20T16:20:01.546Z,1.00
2023-05-20T16:22:30.108Z,1.00
2023-05-20T16:24:58.253Z,1.00
2023-05-20T16:27:26.776Z,1.00
2023-05-20T16:29:54.963Z,1.00
2023-05-20T16:32:24.820Z,1.00
2023-05-20T16:34:54.516Z,1.00
2023-05-20T16:37:22.864Z,1.00
2023-05-20T16:39:51.242Z,32.40
2023-05-20T16:42:19.639Z,68.10
2023-05-20T16:44:49.727Z,62.10
2023-05-20T16:47:18.381Z,1.00
2023-05-20T16:49:47.869Z,4.70
2023-05-20T16:52:16.460Z,11.90
2023-05-20T16:54:44.832Z,15.40
2023-05-20T16:57:15.843Z,16.00
2023-05-20T16:59:44.041Z,21.60
2023-05-20T17:02:12.325Z,24.30
2023-05-20T17:04:40.654Z,25.40
2023-05-20T17:07:11.274Z,22.60
2023-05-20T17:09:39.546Z,21.50
2023-05-20T17:12:08.580Z,23.40
2023-05-20T17:14:36.914Z,24.00
2023-05-20T17:17:06.782Z,24.90
2023-05-20T17:19:35.246Z,25.50
2023-05-20T17:22:03.682Z,23.80
2023-05-20T17:24:34.948Z,24.60
2023-05-20T17:27:03.963Z,24.30
2023-05-20T17:29:32.154Z,24.30
2023-05-20T17:32:00.552Z,24.60
2023-05-20T17:34:29.628Z,22.40
2023-05-20T17:36:58.120Z,22.80
2023-05-20T17:39:26.364Z,19.60
2023-05-20T17:41:56.529Z,20.20
2023-05-20T17:44:24.841Z,14.40
2023-05-20T17:46:54.519Z,19.50
2023-05-20T17:49:23.134Z,26.10
2023-05-20T17:51:51.415Z,26.70
2023-05-20T17:54:19.622Z,32.30
2023-05-20T17:56:50.823Z,38.00
2023-05-20T17:59:21.716Z,39.20
2023-05-20T18:01:50.184Z,44.60
2023-05-20T18:04:18.709Z,48.60
2023-05-20T18:06:47.091Z,50.90
2023-05-20T18:09:15.457Z,56.90
2023-05-20T18:11:43.772Z,58.10
2023-05-20T18:14:12.187Z,60.00
2023-05-20T18:16:41.934Z,63.30
2023-05-20T18:19:10.185Z,66.50
2023-05-20T18:21:38.510Z,70.50
2023-05-20T18:24:07.158Z,72.60
2023-05-20T18:26:35.604Z,74.30
2023-05-20T18:29:04.249Z,78.10
2023-05-20T18:31:32.731Z,79.90
2023-05-20T18:34:02.964Z,83.40
2023-05-20T18:36:31.460Z,86.50
2023-05-20T18:38:59.637Z,90.60
2023-05-20T18:41:39.549Z,91.80
2023-05-20T18:44:14.804Z,94.40
2023-05-20T18:46:43.163Z,96.20
2023-05-20T18:49:12.851Z,98.10
2023-05-20T18:51:41.904Z,99.60
2023-05-20T18:54:10.280Z,99.90
2023-05-20T18:56:38.542Z,99.90
2023-05-20T18:59:06.930Z,99.90
2023-05-20T19:01:36.490Z,99.90
2023-05-20T19:04:05.105Z,99.90
2023-05-20T19:06:35.220Z,99.90
2023-05-20T19:09:03.694Z,99.90
2023-05-20T19:11:32.187Z,99.90
2023-05-20T19:14:00.670Z,99.90
2023-05-20T19:16:29.070Z,99.90
2023-05-20T19:18:57.418Z,99.90
2023-05-20T19:21:25.923Z,99.90
2023-05-20T19:23:56.158Z,99.90
2023-05-20T19:26:24.680Z,99.90
2023-05-20T19:28:53.006Z,99.90
2023-05-20T19:31:22.032Z,99.90
2023-05-20T19:33:50.609Z,99.90
2023-05-20T19:36:19.178Z,99.90
2023-05-20T19:38:47.833Z,99.90
2023-05-20T19:41:17.369Z,99.90
2023-05-20T19:43:45.669Z,99.90
2023-05-20T19:46:14.018Z,99.90
2023-05-20T19:48:42.375Z,99.90
2023-05-20T19:51:11.408Z,99.90
2023-05-20T19:53:39.801Z,99.90
2023-05-20T19:56:08.770Z,99.90
2023-05-20T19:58:38.447Z,99.90
2023-05-20T20:01:06.909Z,99.90
2023-05-20T20:03:35.234Z,99.90
2023-05-20T20:06:03.911Z,99.90
2023-05-20T20:08:33.156Z,99.90
2023-05-20T20:11:01.885Z,99.90
2023-05-20T20:13:30.496Z,99.90
2023-05-20T20:16:00.498Z,99.90
2023-05-20T20:18:28.962Z,99.90
2023-05-20T20:20:59.588Z,99.90
2023-05-20T20:23:28.657Z,99.90
2023-05-20T20:25:57.498Z,99.90
2023-05-20T20:28:26.180Z,99.90
2023-05-20T20:30:55.724Z,99.90
2023-05-20T20:33:25.864Z,99.90
2023-05-20T20:35:55.705Z,99.90
2023-05-20T20:38:24.160Z,99.90
2023-05-20T20:40:54.816Z,99.90
2023-05-20T20:43:23.271Z,99.90
2023-05-20T20:45:53.284Z,99.90
2023-05-20T20:48:27.236Z,99.90
2023-05-20T20:50:58.980Z,99.90
2023-05-20T20:53:27.754Z,99.90
2023-05-20T20:55:56.824Z,99.90
2023-05-20T20:58:27.236Z,99.90
2023-05-20T21:00:55.748Z,99.90
2023-05-20T21:03:26.339Z,99.90
2023-05-20T21:05:54.715Z,99.90
2023-05-20T21:08:27.614Z,99.90
2023-05-20T21:10:59.018Z,99.90
2023-05-20T21:13:28.428Z,99.90
2023-05-20T21:15:56.782Z,99.90
2023-05-20T21:18:25.514Z,99.90
2023-05-20T21:20:55.674Z,99.90
2023-05-20T21:23:25.813Z,99.90
2023-05-20T21:25:54.233Z,99.90
2023-05-20T21:28:23.329Z,99.90
2023-05-20T21:30:51.676Z,99.90
2023-05-20T21:33:20.447Z,99.90
2023-05-20T21:35:48.761Z,99.90
2023-05-20T21:38:17.022Z,99.90
2023-05-20T21:40:47.316Z,99.90
2023-05-20T21:43:15.694Z,99.90
2023-05-20T21:45:45.650Z,99.90
2023-05-20T21:48:14.113Z,99.90
2023-05-20T21:50:42.626Z,99.90
2023-05-20T21:53:11.437Z,99.90
2023-05-20T21:55:41.012Z,99.90
2023-05-20T21:58:11.564Z,99.90
2023-05-20T22:00:40.950Z,99.90
2023-05-20T22:03:09.302Z,99.90
2023-05-20T22:05:38.914Z,99.90
2023-05-20T22:08:07.889Z,99.90
2023-05-20T22:10:36.457Z,99.90
2023-05-20T22:13:05.489Z,99.90
2023-05-20T22:15:35.376Z,99.90
2023-05-20T22:18:07.661Z,99.90
2023-05-20T22:20:38.510Z,99.90
2023-05-20T22:23:06.711Z,99.90
2023-05-20T22:25:36.057Z,99.90
2023-05-20T22:28:05.297Z,99.90
2023-05-20T22:30:35.060Z,99.90
2023-05-20T22:33:03.836Z,99.90
2023-05-20T22:35:32.403Z,99.90
2023-05-20T22:38:01.182Z,99.90
2023-05-20T22:40:33.324Z,99.90
2023-05-20T22:43:01.579Z,99.90
2023-05-20T22:45:29.934Z,99.90
2023-05-20T22:47:59.608Z,99.90
2023-05-20T22:50:27.948Z,99.90
2023-05-20T22:52:56.258Z,99.90
2023-05-20T22:55:24.882Z,99.90
2023-05-20T22:57:53.203Z,99.90
2023-05-20T23:00:21.508Z,99.90
2023-05-20T23:02:52.191Z,99.90
2023-05-20T23:05:22.004Z,99.90
2023-05-20T23:07:52.524Z,99.90
2023-05-20T23:10:20.897Z,99.90
2023-05-20T23:12:49.114Z,99.90
2023-05-20T23:15:17.629Z,99.90
2023-05-20T23:17:45.985Z,99.90
2023-05-20T23:20:18.827Z,99.90
2023-05-20T23:22:48.433Z,99.90
2023-05-20T23:25:16.949Z,99.90
2023-05-20T23:27:45.475Z,99.90
2023-05-20T23:30:13.935Z,99.90
2023-05-20T23:32:42.484Z,99.90
2023-05-20T23:35:12.016Z,99.90
2023-05-20T23:37:40.999Z,99.90
2023-05-20T23:40:11.612Z,99.90
2023-05-20T23:42:40.188Z,99.90
2023-05-20T23:45:09.331Z,99.90
2023-05-20T23:47:37.812Z,99.90
2023-05-20T23:50:06.808Z,99.90
2023-05-20T23:52:35.120Z,99.90
2023-05-20T23:55:03.359Z,99.90
2023-05-20T23:57:32.961Z,99.90
